Aviation Digital Data Service (ADDS)

Output produced by METARs form (0646 UTC 30 March 2017)
found at http://aviationweather.gov/adds/metars/
 
KBGR 300520Z 3006/3106 34015KT P6SM BKN035 
     FM301400 34014G22KT P6SM SCT050 
     FM310000 34006KT P6SM SKC